createdAt,value
2018-01-21T00:00:41.163Z,15.03
2018-01-21T00:03:07.107Z,16.43
2018-01-21T00:05:33.107Z,17.40
2018-01-21T00:07:59.036Z,19.13
2018-01-21T00:10:25.015Z,17.47
2018-01-21T00:12:50.952Z,16.60
2018-01-21T00:15:16.968Z,15.93
2018-01-21T00:17:42.916Z,21.13
2018-01-21T00:20:08.996Z,18.53
2018-01-21T00:22:39.728Z,18.40
2018-01-21T00:25:05.704Z,19.00
2018-01-21T00:27:31.699Z,19.77
2018-01-21T00:29:57.640Z,21.37
2018-01-21T00:32:23.643Z,19.00
2018-01-21T00:34:49.601Z,20.47
2018-01-21T00:37:15.564Z,20.33
2018-01-21T00:39:42.272Z,17.03
2018-01-21T00:42:08.204Z,18.83
2018-01-21T00:44:34.170Z,15.93
2018-01-21T00:47:00.119Z,21.30
2018-01-21T00:49:26.854Z,18.70
2018-01-21T00:51:52.847Z,20.47
2018-01-21T00:54:18.782Z,19.70
2018-01-21T00:56:44.727Z,19.73
2018-01-21T00:59:10.695Z,20.63
2018-01-21T01:01:36.635Z,22.40
2018-01-21T01:04:02.599Z,21.37
2018-01-21T01:06:29.263Z,19.93
2018-01-21T01:08:55.273Z,22.43
2018-01-21T01:11:21.203Z,18.73
2018-01-21T01:13:47.195Z,21.57
2018-01-21T01:16:13.152Z,21.73
2018-01-21T01:18:39.100Z,22.97
2018-01-21T01:21:05.071Z,19.30
2018-01-21T01:23:31.013Z,19.80
2018-01-21T01:25:56.979Z,18.87
2018-01-21T01:28:22.943Z,18.83
2018-01-21T01:30:48.879Z,17.17
2018-01-21T01:33:14.864Z,21.83
2018-01-21T01:35:40.813Z,19.97
2018-01-21T01:38:06.779Z,22.90
2018-01-21T01:40:32.715Z,20.10
2018-01-21T01:42:58.679Z,17.73
2018-01-21T01:45:25.363Z,19.53
2018-01-21T01:47:51.327Z,21.60
2018-01-21T01:50:17.332Z,18.60
2018-01-21T01:52:43.271Z,22.93
2018-01-21T01:55:09.234Z,19.30
2018-01-21T01:57:35.171Z,19.70
2018-01-21T02:00:01.159Z,23.63
2018-01-21T02:02:27.096Z,18.30
2018-01-21T02:04:53.055Z,22.30
2018-01-21T02:07:19.019Z,18.30
2018-01-21T02:09:45.013Z,20.10
2018-01-21T02:12:10.947Z,23.77
2018-01-21T02:14:36.911Z,19.40
2018-01-21T02:17:02.851Z,20.83
2018-01-21T02:19:28.811Z,22.73
2018-01-21T02:21:54.743Z,18.80
2018-01-21T02:24:20.807Z,21.67
2018-01-21T02:26:47.523Z,18.50
2018-01-21T02:29:13.515Z,18.53
2018-01-21T02:31:39.559Z,19.07
2018-01-21T02:34:05.497Z,22.90
2018-01-21T02:36:31.467Z,18.90
2018-01-21T02:38:57.570Z,22.13
2018-01-21T02:41:23.537Z,22.80
2018-01-21T02:43:49.472Z,25.93
2018-01-21T02:46:15.469Z,16.07
2018-01-21T02:48:41.417Z,19.37
2018-01-21T02:51:07.388Z,17.83
2018-01-21T02:53:33.348Z,21.20
2018-01-21T02:56:00.072Z,23.77
2018-01-21T02:58:26.044Z,18.10
2018-01-21T03:00:52.736Z,19.57
2018-01-21T03:03:18.680Z,21.43
2018-01-21T03:05:44.688Z,14.93
2018-01-21T03:08:10.668Z,21.10
2018-01-21T03:10:36.620Z,21.57
2018-01-21T03:13:03.309Z,18.80
2018-01-21T03:15:29.304Z,17.33
2018-01-21T03:17:55.233Z,20.67
2018-01-21T03:20:21.221Z,20.10
2018-01-21T03:22:47.197Z,17.63
2018-01-21T03:25:13.165Z,21.10
2018-01-21T03:27:39.877Z,17.20
2018-01-21T03:30:05.840Z,18.90
2018-01-21T03:32:31.821Z,16.33
2018-01-21T03:34:57.760Z,15.67
2018-01-21T03:37:23.700Z,19.87
2018-01-21T03:39:49.672Z,21.50
2018-01-21T03:42:15.638Z,17.30
2018-01-21T03:44:41.577Z,22.83
2018-01-21T03:47:07.581Z,17.23
2018-01-21T03:49:40.416Z,18.57
2018-01-21T03:52:06.365Z,18.70
2018-01-21T03:54:32.345Z,25.57
2018-01-21T03:56:58.330Z,20.37
2018-01-21T03:59:24.300Z,21.03
2018-01-21T04:01:50.243Z,16.97
2018-01-21T04:04:16.247Z,20.17
2018-01-21T04:06:42.189Z,20.00
2018-01-21T04:09:08.160Z,19.23
2018-01-21T04:11:34.154Z,20.50
2018-01-21T04:14:00.109Z,17.93
2018-01-21T04:16:26.088Z,19.50
2018-01-21T04:18:52.772Z,21.03
2018-01-21T04:21:18.770Z,22.00
2018-01-21T04:23:46.216Z,21.47
2018-01-21T04:26:12.189Z,15.10
2018-01-21T04:28:38.914Z,18.33
2018-01-21T04:31:06.340Z,17.03
2018-01-21T04:33:32.339Z,21.23
2018-01-21T04:35:59.025Z,17.20
2018-01-21T04:38:24.961Z,13.63
2018-01-21T04:40:50.931Z,17.80
2018-01-21T04:43:16.893Z,17.17
2018-01-21T04:45:43.628Z,15.90
2018-01-21T04:48:09.565Z,18.43
2018-01-21T04:50:35.509Z,15.77
2018-01-21T04:53:02.224Z,18.70
2018-01-21T04:55:28.212Z,18.20
2018-01-21T04:57:54.955Z,18.20
2018-01-21T05:00:20.964Z,17.00
2018-01-21T05:02:46.935Z,15.43
2018-01-21T05:05:13.645Z,19.63
2018-01-21T05:07:39.630Z,18.27
2018-01-21T05:10:06.352Z,19.83
2018-01-21T05:12:32.295Z,16.10
2018-01-21T05:14:58.236Z,20.33
2018-01-21T05:17:24.256Z,18.93
2018-01-21T05:19:50.200Z,18.90
2018-01-21T05:22:16.156Z,15.83
2018-01-21T05:24:42.868Z,17.23
2018-01-21T05:27:08.859Z,17.37
2018-01-21T05:29:34.812Z,19.67
2018-01-21T05:32:00.752Z,18.23
2018-01-21T05:34:26.730Z,18.47
2018-01-21T05:36:52.713Z,17.17
2018-01-21T05:39:18.657Z,17.67
2018-01-21T05:41:51.659Z,17.53
2018-01-21T05:44:17.619Z,16.27
2018-01-21T05:46:43.605Z,16.87
2018-01-21T05:49:10.324Z,18.43
2018-01-21T05:51:36.279Z,17.37
2018-01-21T05:54:03.006Z,19.47
2018-01-21T05:56:28.956Z,24.00
2018-01-21T05:58:54.954Z,16.27
2018-01-21T06:01:20.900Z,21.80
2018-01-21T06:03:46.876Z,16.83
2018-01-21T06:06:13.619Z,18.93
2018-01-21T06:08:40.349Z,17.70
2018-01-21T06:11:06.332Z,17.63
2018-01-21T06:13:33.026Z,18.43
2018-01-21T06:15:58.996Z,21.00
2018-01-21T06:18:24.977Z,19.63
2018-01-21T06:20:50.924Z,21.63
2018-01-21T06:23:16.921Z,23.63
2018-01-21T06:25:43.664Z,23.00
2018-01-21T06:28:10.344Z,20.57
2018-01-21T06:30:36.289Z,26.70
2018-01-21T06:33:02.302Z,22.10
2018-01-21T06:35:29.017Z,27.93
2018-01-21T06:37:56.488Z,22.93
2018-01-21T06:40:22.425Z,24.73
2018-01-21T06:42:48.366Z,21.60
2018-01-21T06:45:14.373Z,22.07
2018-01-21T06:47:40.316Z,22.47
2018-01-21T06:50:06.289Z,22.27
2018-01-21T06:52:32.985Z,22.00
2018-01-21T06:54:58.933Z,27.00
2018-01-21T06:57:24.993Z,23.10
2018-01-21T06:59:50.945Z,22.17
2018-01-21T07:02:16.904Z,22.47
2018-01-21T07:04:42.876Z,23.57
2018-01-21T07:07:08.811Z,24.10
2018-01-21T07:09:34.793Z,24.20
2018-01-21T07:12:01.486Z,22.60
2018-01-21T07:14:27.463Z,18.90
2018-01-21T07:16:53.484Z,24.13
2018-01-21T07:19:19.481Z,25.83
2018-01-21T07:21:45.436Z,20.87
2018-01-21T07:24:11.416Z,23.60
2018-01-21T07:26:38.157Z,26.90
2018-01-21T07:29:04.128Z,23.27
2018-01-21T07:31:30.917Z,22.43
2018-01-21T07:33:56.908Z,22.63
2018-01-21T07:36:23.596Z,24.20
2018-01-21T07:38:49.568Z,22.93
2018-01-21T07:41:15.564Z,26.03
2018-01-21T07:43:41.508Z,25.57
2018-01-21T07:46:07.492Z,27.73
2018-01-21T07:48:33.439Z,29.53
2018-01-21T07:51:00.141Z,28.40
2018-01-21T07:53:26.126Z,29.73
2018-01-21T07:55:52.832Z,34.77
2018-01-21T07:58:18.808Z,26.23
2018-01-21T08:00:44.760Z,27.73
2018-01-21T08:03:11.481Z,28.40
2018-01-21T08:05:37.428Z,26.40
2018-01-21T08:08:03.380Z,27.67
2018-01-21T08:10:29.370Z,28.37
2018-01-21T08:12:55.315Z,24.80
2018-01-21T08:15:21.329Z,26.37
2018-01-21T08:17:48.064Z,28.33
2018-01-21T08:20:14.034Z,27.40
2018-01-21T08:22:40.026Z,29.27
2018-01-21T08:25:05.963Z,30.73
2018-01-21T08:27:31.920Z,27.80
2018-01-21T08:29:57.905Z,27.20
2018-01-21T08:32:24.633Z,27.50
2018-01-21T08:34:56.730Z,28.53
2018-01-21T08:40:29.471Z,29.20
2018-01-21T08:42:56.192Z,29.87
2018-01-21T08:45:22.152Z,33.23
2018-01-21T08:47:48.128Z,29.83
2018-01-21T08:50:14.166Z,28.10
2018-01-21T08:52:40.108Z,35.60
2018-01-21T08:55:06.104Z,32.60
2018-01-21T08:57:32.825Z,31.73
2018-01-21T08:59:58.796Z,27.67
2018-01-21T09:02:25.497Z,30.40
2018-01-21T09:04:51.476Z,31.27
2018-01-21T09:07:17.480Z,31.80
2018-01-21T09:09:43.470Z,32.70
2018-01-21T09:12:09.416Z,29.60
2018-01-21T09:14:35.364Z,33.37
2018-01-21T09:17:01.360Z,34.80
2018-01-21T09:19:28.084Z,33.90
2018-01-21T09:21:54.052Z,28.60
2018-01-21T09:24:20.867Z,34.23
2018-01-21T09:26:46.845Z,31.17
2018-01-21T09:29:12.788Z,31.73
2018-01-21T09:31:39.534Z,34.40
2018-01-21T09:34:06.220Z,31.00
2018-01-21T09:36:32.216Z,31.83
2018-01-21T09:38:58.965Z,39.37
2018-01-21T09:41:25.696Z,33.97
2018-01-21T09:43:51.639Z,37.83
2018-01-21T09:46:17.645Z,30.93
2018-01-21T09:48:43.588Z,34.17
2018-01-21T09:51:09.559Z,33.90
2018-01-21T09:53:35.559Z,34.47
2018-01-21T09:56:01.505Z,37.50
2018-01-21T09:58:27.453Z,34.13
2018-01-21T10:00:53.428Z,37.20
2018-01-21T10:03:19.400Z,37.63
2018-01-21T10:05:45.404Z,43.23
2018-01-21T10:08:11.367Z,38.03
2018-01-21T10:10:37.308Z,35.83
2018-01-21T10:13:03.332Z,38.63
2018-01-21T10:15:29.311Z,39.20
2018-01-21T10:17:55.297Z,34.83
2018-01-21T10:20:21.236Z,39.40
2018-01-21T10:22:47.254Z,40.07
2018-01-21T10:25:13.208Z,44.33
2018-01-21T10:27:39.153Z,45.40
2018-01-21T10:30:05.138Z,44.93
2018-01-21T10:32:31.884Z,41.97
2018-01-21T10:34:57.824Z,43.67
2018-01-21T10:37:23.767Z,49.17
2018-01-21T10:39:50.492Z,47.40
2018-01-21T10:42:16.463Z,49.00
2018-01-21T10:44:42.417Z,43.30
2018-01-21T10:47:15.554Z,46.43
2018-01-21T10:49:41.517Z,44.27
2018-01-21T10:52:07.497Z,40.13
2018-01-21T10:54:33.520Z,37.97
2018-01-21T10:56:59.508Z,42.20
2018-01-21T10:59:25.457Z,47.40
2018-01-21T11:01:52.760Z,39.40
2018-01-21T11:04:18.750Z,43.30
2018-01-21T11:06:44.916Z,38.17
2018-01-21T11:09:10.909Z,49.20
2018-01-21T11:11:36.888Z,51.80
2018-01-21T11:14:03.584Z,43.40
2018-01-21T11:16:29.573Z,50.17
2018-01-21T11:18:56.268Z,51.20
2018-01-21T11:21:22.218Z,45.47
2018-01-21T11:23:48.209Z,50.63
2018-01-21T11:26:14.186Z,60.23
2018-01-21T11:28:40.204Z,53.30
2018-01-21T11:31:06.148Z,52.40
2018-01-21T11:33:32.096Z,53.07
2018-01-21T11:35:58.082Z,53.97
2018-01-21T11:38:24.781Z,46.67
2018-01-21T11:40:50.784Z,56.03
2018-01-21T11:43:16.752Z,51.07
2018-01-21T11:45:42.703Z,55.03
2018-01-21T11:48:08.708Z,49.83
2018-01-21T11:50:34.657Z,53.43
2018-01-21T11:53:00.648Z,54.83
2018-01-21T11:55:27.341Z,53.17
2018-01-21T11:57:53.282Z,54.70
2018-01-21T12:00:19.268Z,52.60
2018-01-21T12:02:45.263Z,49.40
2018-01-21T12:05:11.201Z,54.50
2018-01-21T12:07:37.150Z,53.83
2018-01-21T12:10:03.138Z,53.10
2018-01-21T12:12:29.085Z,50.33
2018-01-21T12:14:55.032Z,51.10
2018-01-21T12:17:21.792Z,53.07
2018-01-21T12:19:47.745Z,51.97
2018-01-21T12:22:13.712Z,46.97
2018-01-21T12:24:40.428Z,52.37
2018-01-21T12:27:06.381Z,52.53
2018-01-21T12:29:32.348Z,47.13
2018-01-21T12:31:59.029Z,48.57
2018-01-21T12:34:24.999Z,55.83
2018-01-21T12:36:50.945Z,52.83
2018-01-21T12:39:16.961Z,49.70
2018-01-21T12:41:42.960Z,48.77
2018-01-21T12:44:08.929Z,49.07
2018-01-21T12:49:08.484Z,53.33
2018-01-21T12:51:34.429Z,53.83
2018-01-21T12:54:00.405Z,56.17
2018-01-21T12:56:26.352Z,61.73
2018-01-21T12:58:52.362Z,57.50
2018-01-21T13:01:19.102Z,47.63
2018-01-21T13:03:45.057Z,55.73
2018-01-21T13:06:11.772Z,53.13
2018-01-21T13:08:37.754Z,48.30
2018-01-21T13:11:03.766Z,48.77
2018-01-21T13:13:29.756Z,53.53
2018-01-21T13:15:55.738Z,49.27
2018-01-21T13:18:21.677Z,56.77
2018-01-21T13:20:48.414Z,49.27
2018-01-21T13:23:14.385Z,56.60
2018-01-21T13:25:47.408Z,54.20
2018-01-21T13:28:13.434Z,59.87
2018-01-21T13:30:39.381Z,66.20
2018-01-21T13:33:05.356Z,60.37
2018-01-21T13:35:31.312Z,50.07
2018-01-21T13:37:58.033Z,50.73
2018-01-21T13:40:24.023Z,54.93
2018-01-21T13:42:50.072Z,58.63
2018-01-21T13:45:16.120Z,55.40
2018-01-21T13:47:42.068Z,57.30
2018-01-21T13:50:08.050Z,51.47
2018-01-21T13:52:34.744Z,49.97
2018-01-21T13:55:01.490Z,56.27
2018-01-21T13:57:27.460Z,56.83
2018-01-21T13:59:53.482Z,55.13
2018-01-21T14:02:19.435Z,50.37
2018-01-21T14:04:45.441Z,48.17
2018-01-21T14:07:11.422Z,53.77
2018-01-21T14:09:38.149Z,57.07
2018-01-21T14:12:04.096Z,53.37
2018-01-21T14:14:30.064Z,61.43
2018-01-21T14:16:56.744Z,51.80
2018-01-21T14:19:22.723Z,64.47
2018-01-21T14:21:48.749Z,62.00
2018-01-21T14:24:14.765Z,55.50
2018-01-21T14:26:40.749Z,56.30
2018-01-21T14:29:06.697Z,55.77
2018-01-21T14:31:33.471Z,52.70
2018-01-21T14:33:59.431Z,55.13
2018-01-21T14:36:25.467Z,55.20
2018-01-21T14:38:51.468Z,54.17
2018-01-21T14:41:18.250Z,53.90
2018-01-21T14:43:44.240Z,55.03
2018-01-21T14:46:10.213Z,58.47
2018-01-21T14:48:36.200Z,54.33
2018-01-21T14:51:02.192Z,52.73
2018-01-21T14:53:28.144Z,43.70
2018-01-21T14:55:54.098Z,48.47
2018-01-21T14:58:20.072Z,49.33
2018-01-21T15:00:46.851Z,49.50
2018-01-21T15:03:12.869Z,50.30
2018-01-21T15:05:38.804Z,48.57
2018-01-21T15:08:04.842Z,50.17
2018-01-21T15:10:30.797Z,52.73
2018-01-21T15:12:56.744Z,51.77
2018-01-21T15:15:22.724Z,53.00
2018-01-21T15:17:48.713Z,54.00
2018-01-21T15:20:14.692Z,67.43
2018-01-21T15:22:41.400Z,65.37
2018-01-21T15:25:07.455Z,55.83
2018-01-21T15:27:33.417Z,48.97
2018-01-21T15:29:59.350Z,65.33
2018-01-21T15:32:25.324Z,55.70
2018-01-21T15:34:51.311Z,48.30
2018-01-21T15:37:17.364Z,47.83
2018-01-21T15:39:44.089Z,61.07
2018-01-21T15:42:10.078Z,51.87
2018-01-21T15:44:36.813Z,51.40
2018-01-21T15:47:03.604Z,51.40
2018-01-21T15:49:29.604Z,58.60
2018-01-21T15:51:55.571Z,49.27
2018-01-21T15:54:21.556Z,52.83
2018-01-21T15:56:47.591Z,56.87
2018-01-21T15:59:13.629Z,65.10
2018-01-21T16:01:39.622Z,52.87
2018-01-21T16:04:05.596Z,50.87
2018-01-21T16:06:31.646Z,53.00
2018-01-21T16:08:57.636Z,48.17
2018-01-21T16:11:23.595Z,61.07
2018-01-21T16:13:49.664Z,52.70
2018-01-21T16:16:15.661Z,48.27
2018-01-21T16:18:41.616Z,58.63
2018-01-21T16:21:07.613Z,58.80
2018-01-21T16:23:33.617Z,56.07
2018-01-21T16:26:00.425Z,56.20
2018-01-21T16:28:26.399Z,65.07
2018-01-21T16:30:52.464Z,61.80
2018-01-21T16:33:18.826Z,60.73
2018-01-21T16:35:44.992Z,56.13
2018-01-21T16:41:07.639Z,61.30
2018-01-21T16:43:34.466Z,55.47
2018-01-21T16:46:00.497Z,55.23
2018-01-21T16:48:26.447Z,64.10
2018-01-21T16:50:53.168Z,54.93
2018-01-21T16:53:19.211Z,54.17
2018-01-21T16:55:45.175Z,62.33
2018-01-21T16:58:11.181Z,60.43
2018-01-21T17:00:37.152Z,58.27
2018-01-21T17:03:03.152Z,63.50
2018-01-21T17:05:29.104Z,67.97
2018-01-21T17:07:55.060Z,64.23
2018-01-21T17:10:21.203Z,51.30
2018-01-21T17:12:47.299Z,59.60
2018-01-21T17:15:13.344Z,66.27
2018-01-21T17:17:39.377Z,63.10
2018-01-21T17:20:05.419Z,63.63
2018-01-21T17:22:32.087Z,58.43
2018-01-21T17:24:58.617Z,54.07
2018-01-21T17:27:24.586Z,60.87
2018-01-21T17:29:52.089Z,62.93
2018-01-21T17:32:18.069Z,57.97
2018-01-21T17:34:44.089Z,57.30
2018-01-21T17:37:12.358Z,49.97
2018-01-21T17:39:38.376Z,53.73
2018-01-21T17:42:06.956Z,55.90
2018-01-21T17:44:33.014Z,56.80
2018-01-21T17:46:59.737Z,50.10
2018-01-21T17:49:25.739Z,57.10
2018-01-21T17:51:51.764Z,54.43
2018-01-21T17:54:17.815Z,48.47
2018-01-21T17:56:43.814Z,56.50
2018-01-21T17:59:10.597Z,53.53
2018-01-21T18:01:38.654Z,53.60
2018-01-21T18:04:05.614Z,54.57
2018-01-21T18:06:32.360Z,54.53
2018-01-21T18:08:59.377Z,50.97
2018-01-21T18:11:25.597Z,56.33
2018-01-21T18:13:51.558Z,62.73
2018-01-21T18:16:17.632Z,61.73
2018-01-21T18:18:44.459Z,59.30
2018-01-21T18:21:10.560Z,58.70
2018-01-21T18:23:36.541Z,54.90
2018-01-21T18:26:02.562Z,58.23
2018-01-21T18:28:31.080Z,52.87
2018-01-21T18:30:57.247Z,53.80
2018-01-21T18:33:24.034Z,59.60
2018-01-21T18:35:50.283Z,59.33
2018-01-21T18:38:16.407Z,59.33
2018-01-21T18:40:42.404Z,58.60
2018-01-21T18:43:08.453Z,61.57
2018-01-21T18:45:36.901Z,63.80
2018-01-21T18:48:03.089Z,64.23
2018-01-21T18:50:30.102Z,53.80
2018-01-21T18:52:56.516Z,56.70
2018-01-21T18:55:23.519Z,60.43
2018-01-21T18:57:49.668Z,63.17
2018-01-21T19:00:17.613Z,61.07
2018-01-21T19:02:43.819Z,59.07
2018-01-21T19:05:09.828Z,65.23
2018-01-21T19:07:35.782Z,61.77
2018-01-21T19:10:01.888Z,55.57
2018-01-21T19:12:27.928Z,59.30
2018-01-21T19:14:53.965Z,56.90
2018-01-21T19:17:22.258Z,74.60
2018-01-21T19:19:48.232Z,55.23
2018-01-21T19:22:15.097Z,59.73
2018-01-21T19:24:41.893Z,59.13
2018-01-21T19:27:10.255Z,64.53
2018-01-21T19:29:36.248Z,63.07
2018-01-21T19:32:02.277Z,56.50
2018-01-21T19:34:28.374Z,63.20
2018-01-21T19:36:55.612Z,61.60
2018-01-21T19:39:24.236Z,72.37
2018-01-21T19:41:52.388Z,62.07
2018-01-21T19:44:19.462Z,66.30
2018-01-21T19:46:46.272Z,59.00
2018-01-21T19:49:12.470Z,61.60
2018-01-21T19:51:38.575Z,59.77
2018-01-21T19:54:04.600Z,61.93
2018-01-21T19:56:30.595Z,62.70
2018-01-21T19:58:58.105Z,58.43
2018-01-21T20:01:24.072Z,58.33
2018-01-21T20:03:50.853Z,59.97
2018-01-21T20:06:16.973Z,61.80
2018-01-21T20:08:44.018Z,58.27
2018-01-21T20:11:10.728Z,55.77
2018-01-21T20:13:36.716Z,58.00
2018-01-21T20:16:03.451Z,66.20
2018-01-21T20:18:29.485Z,62.47
2018-01-21T20:20:55.584Z,57.53
2018-01-21T20:23:21.605Z,58.27
2018-01-21T20:25:47.613Z,68.17
2018-01-21T20:28:14.385Z,60.20
2018-01-21T20:30:40.396Z,58.10
2018-01-21T20:33:06.346Z,56.03
2018-01-21T20:35:33.060Z,55.83
2018-01-21T20:37:59.052Z,62.53
2018-01-21T20:40:24.997Z,63.00
2018-01-21T20:42:51.032Z,62.03
2018-01-21T20:45:17.076Z,64.17
2018-01-21T20:47:43.737Z,64.07
2018-01-21T20:50:09.737Z,61.97
2018-01-21T20:52:42.664Z,65.93
2018-01-21T20:55:08.707Z,88.32
2018-01-21T20:57:34.777Z,83.40
2018-01-21T21:00:00.712Z,65.00
2018-01-21T21:02:26.680Z,61.57
2018-01-21T21:04:53.356Z,68.80
2018-01-21T21:07:19.404Z,57.40
2018-01-21T21:09:45.472Z,69.17
2018-01-21T21:12:11.455Z,63.80
2018-01-21T21:14:37.471Z,78.13
2018-01-21T21:17:04.263Z,68.73
2018-01-21T21:19:30.295Z,56.43
2018-01-21T21:21:56.348Z,74.93
2018-01-21T21:24:22.379Z,71.20
2018-01-21T21:26:48.416Z,67.07
2018-01-21T21:29:14.396Z,61.67
2018-01-21T21:31:40.384Z,63.47
2018-01-21T21:34:06.436Z,61.77
2018-01-21T21:36:32.394Z,65.17
2018-01-21T21:38:58.410Z,58.77
2018-01-21T21:41:24.412Z,68.57
2018-01-21T21:43:50.382Z,69.37
2018-01-21T21:46:16.446Z,54.30
2018-01-21T21:48:42.480Z,69.67
2018-01-21T21:51:08.448Z,61.30
2018-01-21T21:53:35.189Z,59.70
2018-01-21T21:56:01.145Z,55.80
2018-01-21T21:58:27.880Z,60.03
2018-01-21T22:00:53.844Z,63.50
2018-01-21T22:03:19.851Z,66.07
2018-01-21T22:05:45.893Z,60.03
2018-01-21T22:08:12.621Z,58.60
2018-01-21T22:10:38.598Z,70.50
2018-01-21T22:13:04.622Z,64.80
2018-01-21T22:15:31.442Z,71.00
2018-01-21T22:17:57.404Z,83.43
2018-01-21T22:20:24.192Z,80.53
2018-01-21T22:22:50.224Z,80.00
2018-01-21T22:25:16.281Z,71.57
2018-01-21T22:27:42.257Z,77.40
2018-01-21T22:30:08.209Z,61.20
2018-01-21T22:32:34.991Z,85.33
2018-01-21T22:35:01.017Z,70.10
2018-01-21T22:37:27.042Z,82.17
2018-01-21T22:39:53.764Z,76.40
2018-01-21T22:42:19.744Z,66.37
2018-01-21T22:44:45.791Z,75.17
2018-01-21T22:47:11.766Z,73.53
2018-01-21T22:49:37.766Z,84.97
2018-01-21T22:52:03.724Z,70.83
2018-01-21T22:54:29.723Z,74.10
2018-01-21T22:56:56.464Z,79.03
2018-01-21T22:59:23.287Z,67.77
2018-01-21T23:01:49.269Z,73.13
2018-01-21T23:04:16.022Z,74.63
2018-01-21T23:06:43.093Z,58.73
2018-01-21T23:09:09.093Z,61.20
2018-01-21T23:11:35.048Z,64.73
2018-01-21T23:14:01.789Z,66.13
2018-01-21T23:16:27.756Z,67.07
2018-01-21T23:18:53.692Z,64.53
2018-01-21T23:21:19.669Z,67.53
2018-01-21T23:23:45.633Z,70.53
2018-01-21T23:26:11.641Z,63.57
2018-01-21T23:28:37.568Z,55.77
2018-01-21T23:31:03.542Z,61.90
2018-01-21T23:33:30.356Z,57.33
2018-01-21T23:35:56.291Z,63.70
2018-01-21T23:38:22.228Z,61.33
2018-01-21T23:40:48.188Z,58.83
2018-01-21T23:43:14.138Z,64.50
2018-01-21T23:45:40.892Z,54.10
2018-01-21T23:48:07.624Z,54.53
2018-01-21T23:50:33.604Z,58.77
2018-01-21T23:52:59.541Z,57.83
2018-01-21T23:55:25.485Z,56.87
2018-01-21T23:57:51.458Z,54.50
